Time;durP1;ratioP1;P1;durP2;ratioP2;P2;SDS_P1;SDS_P2;PMS_P1;PMS_P2;Temp;Humidity;BMP_temperature;BMP_pressure;BME280_temperature;BME280_humidity;BME280_pressure;Samples;Min_cycle;Max_cycle;Signal;HPM_P1;HPM_P2
2022/03/24 00:00:00;;;;;;;54.15;19.25;;;13.10;38.40;;;;;;4979040;28;20042;-87
2022/03/24 00:02:26;;;;;;;44.88;18.85;;;13.10;38.50;;;;;;4963192;28;20129;-84
2022/03/24 00:04:52;;;;;;;48.25;19.25;;;13.10;38.60;;;;;;4978317;28;20074;-85
2022/03/24 00:07:18;;;;;;;60.70;18.55;;;13.10;38.70;;;;;;4995604;28;20505;-85
2022/03/24 00:09:44;;;;;;;54.92;20.48;;;13.00;38.70;;;;;;4988664;28;20046;-84
2022/03/24 00:12:10;;;;;;;48.72;19.67;;;13.00;38.80;;;;;;4977334;28;20053;-92
2022/03/24 00:14:37;;;;;;;51.53;20.10;;;13.00;38.80;;;;;;4977015;28;20041;-90
2022/03/24 00:17:04;;;;;;;60.47;20.27;;;13.00;38.90;;;;;;4977144;28;20497;-88
2022/03/24 00:19:30;;;;;;;55.50;19.65;;;13.00;38.90;;;;;;4960865;28;20038;-88
2022/03/24 00:21:57;;;;;;;56.72;21.25;;;13.00;38.90;;;;;;4961852;28;20041;-88
2022/03/24 00:24:23;;;;;;;58.95;20.55;;;13.00;38.90;;;;;;4977780;28;20421;-86
2022/03/24 00:26:49;;;;;;;44.60;19.55;;;12.90;38.90;;;;;;4977443;28;20089;-93
2022/03/24 00:29:15;;;;;;;56.28;21.90;;;12.90;39.00;;;;;;4962456;28;20058;-92
2022/03/24 00:31:41;;;;;;;52.80;21.25;;;12.90;39.10;;;;;;4946597;28;20038;-91
2022/03/24 00:34:08;;;;;;;50.90;20.50;;;12.90;39.10;;;;;;4962191;28;20039;-90
2022/03/24 00:36:34;;;;;;;47.35;19.08;;;12.90;39.20;;;;;;4961614;28;20517;-91
2022/03/24 00:39:00;;;;;;;49.78;19.98;;;12.90;39.20;;;;;;4961679;28;20052;-90
2022/03/24 00:41:28;;;;;;;51.97;18.88;;;12.90;39.20;;;;;;4945158;28;20527;-91
2022/03/24 00:43:55;;;;;;;53.88;18.73;;;12.80;39.80;;;;;;4961607;28;20544;-91
2022/03/24 00:46:22;;;;;;;48.97;19.25;;;12.80;39.30;;;;;;4961794;28;20045;-90
2022/03/24 00:48:53;;;;;;;48.15;19.67;;;12.80;39.30;;;;;;4993843;28;20133;-88
2022/03/24 00:51:19;;;;;;;48.80;19.38;;;12.80;39.40;;;;;;4976617;28;20053;-86
2022/03/24 00:53:49;;;;;;;46.40;18.42;;;12.70;39.30;;;;;;4993776;28;20038;-86
2022/03/24 00:56:15;;;;;;;41.78;18.40;;;12.70;39.40;;;;;;4960401;28;20038;-88
2022/03/24 00:58:43;;;;;;;46.17;18.27;;;12.70;39.40;;;;;;4960735;28;20486;-88
2022/03/24 01:01:12;;;;;;;51.03;17.85;;;12.70;39.30;;;;;;4977217;28;20073;-87
2022/03/24 01:03:39;;;;;;;48.47;18.30;;;12.60;39.30;;;;;;4994052;28;20034;-87
2022/03/24 01:06:07;;;;;;;47.50;19.38;;;12.60;39.40;;;;;;4975964;28;20039;-86
2022/03/24 01:08:34;;;;;;;46.60;18.38;;;12.60;39.40;;;;;;4959862;28;20042;-85
2022/03/24 01:11:01;;;;;;;44.30;17.17;;;12.60;39.40;;;;;;4993318;28;20046;-87
2022/03/24 01:13:30;;;;;;;45.25;17.20;;;12.60;39.50;;;;;;4993333;28;20065;-86
2022/03/24 01:15:56;;;;;;;41.63;16.77;;;12.60;39.60;;;;;;4976336;28;20565;-87
2022/03/24 01:18:23;;;;;;;41.15;17.13;;;12.60;39.50;;;;;;4993258;28;20061;-86
2022/03/24 01:20:50;;;;;;;45.30;17.02;;;12.60;39.50;;;;;;4959564;28;20069;-85
2022/03/24 01:23:16;;;;;;;37.15;16.05;;;12.60;39.50;;;;;;4975591;28;20053;-86
2022/03/24 01:25:44;;;;;;;41.97;16.35;;;12.50;39.50;;;;;;4959670;28;20050;-86
2022/03/24 01:28:10;;;;;;;41.45;14.75;;;12.50;39.50;;;;;;4976756;28;20048;-85
2022/03/24 01:30:39;;;;;;;39.97;15.93;;;12.50;39.50;;;;;;4975996;28;20070;-86
2022/03/24 01:33:05;;;;;;;44.35;15.60;;;12.50;39.40;;;;;;4959007;28;20046;-84
2022/03/24 01:35:33;;;;;;;39.10;15.93;;;12.50;39.40;;;;;;4975197;28;20065;-84
2022/03/24 01:38:00;;;;;;;39.42;15.35;;;12.40;39.70;;;;;;4992861;28;20489;-85
2022/03/24 01:40:26;;;;;;;46.85;15.88;;;12.40;39.30;;;;;;4974809;28;20038;-83
2022/03/24 01:42:54;;;;;;;36.53;14.93;;;12.40;39.30;;;;;;4975715;28;20034;-84
2022/03/24 01:45:20;;;;;;;36.72;14.00;;;12.40;39.20;;;;;;4958915;28;20054;-84
2022/03/24 01:47:46;;;;;;;36.95;13.52;;;12.40;39.00;;;;;;4958767;28;20142;-83
2022/03/24 01:50:15;;;;;;;34.90;15.10;;;12.40;39.00;;;;;;4959192;28;20062;-84
2022/03/24 01:52:43;;;;;;;40.35;14.35;;;12.30;39.00;;;;;;4974034;28;20068;-85
2022/03/24 01:55:11;;;;;;;39.53;14.75;;;12.30;39.20;;;;;;4993748;28;20046;-85
2022/03/24 01:57:39;;;;;;;38.92;14.55;;;12.30;39.30;;;;;;4961705;28;20037;-86
2022/03/24 02:00:07;;;;;;;36.30;14.63;;;12.30;39.50;;;;;;4987531;28;20065;-85
2022/03/24 02:02:41;;;;;;;34.72;14.98;;;12.30;39.60;;;;;;4992951;28;20030;-85
2022/03/24 02:05:10;;;;;;;39.58;15.75;;;12.30;39.60;;;;;;4974763;28;20069;-84
2022/03/24 02:07:37;;;;;;;38.30;15.40;;;12.30;39.70;;;;;;4942788;28;20404;-82
2022/03/24 02:10:11;;;;;;;41.08;15.02;;;12.30;39.70;;;;;;4970450;28;20088;-85
2022/03/24 02:12:39;;;;;;;36.17;15.15;;;12.20;39.70;;;;;;4943433;28;20042;-89
2022/03/24 02:15:09;;;;;;;34.38;16.15;;;12.20;39.80;;;;;;4959167;28;20034;-89
2022/03/24 02:17:39;;;;;;;43.25;16.80;;;12.20;39.70;;;;;;4959100;28;20049;-89
2022/03/24 02:20:08;;;;;;;38.90;15.50;;;12.20;39.80;;;;;;4959620;28;20043;-89
2022/03/24 02:22:35;;;;;;;46.55;16.92;;;12.10;39.90;;;;;;4959052;28;20068;-90
2022/03/24 02:25:01;;;;;;;44.88;17.48;;;12.10;40.00;;;;;;4944025;28;20038;-90
2022/03/24 02:27:27;;;;;;;44.92;17.35;;;12.10;40.00;;;;;;4943227;28;20050;-86
2022/03/24 02:29:54;;;;;;;33.88;15.77;;;12.10;40.10;;;;;;4958768;28;20038;-87
2022/03/24 02:32:21;;;;;;;41.13;15.90;;;12.10;40.20;;;;;;4974762;28;20042;-87
2022/03/24 02:34:47;;;;;;;37.50;17.30;;;12.10;40.20;;;;;;4974954;28;20478;-87
2022/03/24 02:37:17;;;;;;;40.67;17.27;;;12.00;40.10;;;;;;4992339;28;20141;-86
2022/03/24 02:39:45;;;;;;;36.88;16.45;;;12.00;40.10;;;;;;4990406;28;20085;-87
2022/03/24 02:42:14;;;;;;;41.67;18.33;;;12.00;40.10;;;;;;4991603;28;20041;-88
2022/03/24 02:44:43;;;;;;;41.22;17.20;;;12.00;40.10;;;;;;4958111;28;20517;-88
2022/03/24 02:47:10;;;;;;;44.13;18.00;;;12.00;40.20;;;;;;4958369;28;20560;-88
2022/03/24 02:49:38;;;;;;;44.30;18.58;;;12.00;40.20;;;;;;4958662;28;20050;-90
2022/03/24 02:52:05;;;;;;;52.65;19.92;;;12.00;40.30;;;;;;4944538;28;20073;-90
2022/03/24 02:54:32;;;;;;;45.63;20.75;;;12.00;40.20;;;;;;4959603;28;20050;-89
2022/03/24 02:56:59;;;;;;;48.90;18.98;;;11.90;40.20;;;;;;4975572;28;20039;-90
2022/03/24 02:59:25;;;;;;;41.90;20.75;;;11.90;40.30;;;;;;4976469;28;20042;-91
2022/03/24 03:01:55;;;;;;;44.47;19.30;;;11.90;40.30;;;;;;4975389;28;20038;-89
2022/03/24 03:04:21;;;;;;;46.05;21.77;;;11.90;40.30;;;;;;4959181;28;20599;-89
2022/03/24 03:06:48;;;;;;;50.53;23.08;;;11.90;40.30;;;;;;4959112;28;20080;-90
2022/03/24 03:09:16;;;;;;;53.78;22.98;;;11.80;40.30;;;;;;4941455;28;20050;-90
2022/03/24 03:11:44;;;;;;;46.65;21.52;;;11.80;40.40;;;;;;4939331;28;20117;-88
2022/03/24 03:14:12;;;;;;;57.85;21.27;;;11.80;40.50;;;;;;4955398;28;20039;-87
2022/03/24 03:16:39;;;;;;;47.20;21.63;;;11.80;40.70;;;;;;4954043;28;20481;-87
2022/03/24 03:19:06;;;;;;;61.47;22.17;;;11.70;40.70;;;;;;4954344;28;20038;-88
2022/03/24 03:21:32;;;;;;;54.20;22.67;;;11.70;40.80;;;;;;4971175;28;20089;-88
2022/03/24 03:23:58;;;;;;;59.75;25.40;;;11.70;40.80;;;;;;4970886;28;20507;-86
2022/03/24 03:26:24;;;;;;;53.20;26.20;;;11.70;40.90;;;;;;4970508;28;20047;-87
2022/03/24 03:28:53;;;;;;;59.90;27.73;;;11.70;40.90;;;;;;4938466;28;20086;-87
2022/03/24 03:31:20;;;;;;;60.78;29.58;;;11.70;40.90;;;;;;4939112;28;20039;-87
2022/03/24 03:33:46;;;;;;;67.25;30.50;;;11.70;40.90;;;;;;4939081;28;20664;-87
2022/03/24 03:36:13;;;;;;;68.80;31.83;;;11.60;40.90;;;;;;4955223;28;20053;-87
2022/03/24 03:38:39;;;;;;;73.13;32.35;;;11.60;40.90;;;;;;4955365;28;20631;-87
2022/03/24 03:41:06;;;;;;;66.85;32.60;;;11.70;41.00;;;;;;4971361;28;20082;-87
2022/03/24 03:43:35;;;;;;;53.47;30.35;;;11.60;40.80;;;;;;4938967;28;20042;-87
2022/03/24 03:46:01;;;;;;;55.22;29.42;;;11.70;40.80;;;;;;4978863;28;20043;-89
2022/03/24 03:48:27;;;;;;;52.53;29.05;;;11.70;40.80;;;;;;4947946;28;20046;-85
2022/03/24 03:50:53;;;;;;;53.72;28.75;;;11.60;40.70;;;;;;4955855;28;20050;-92
2022/03/24 03:53:19;;;;;;;52.28;27.92;;;11.60;40.70;;;;;;4957937;28;20035;-90
2022/03/24 03:55:45;;;;;;;54.30;27.40;;;11.60;40.60;;;;;;4978289;28;20038;-93
2022/03/24 03:58:11;;;;;;;47.75;25.45;;;11.70;40.60;;;;;;4962777;28;20039;-93
2022/03/24 04:00:52;;;;;;;44.65;24.85;;;11.70;40.50;;;;;;4976815;28;20043;-93
2022/03/24 04:03:26;;;;;;;48.78;24.23;;;11.60;40.40;;;;;;4975896;28;20039;-90
2022/03/24 04:05:57;;;;;;;48.17;25.40;;;11.70;40.30;;;;;;4979780;28;20039;-93
2022/03/24 04:08:24;;;;;;;45.53;24.40;;;11.70;40.30;;;;;;5080945;23;20068;-88
2022/03/24 04:10:50;;;;;;;42.53;23.73;;;11.70;40.30;;;;;;5014536;28;20037;-90
2022/03/24 04:13:21;;;;;;;46.35;22.80;;;11.70;40.30;;;;;;5032617;28;20037;-96
2022/03/24 04:15:49;;;;;;;42.67;23.35;;;11.70;40.30;;;;;;5023500;28;20413;-92
2022/03/24 04:18:16;;;;;;;45.03;23.88;;;11.70;40.30;;;;;;5017561;28;20060;-96
2022/03/24 04:20:42;;;;;;;39.92;22.92;;;11.80;40.30;;;;;;5034714;28;20041;-92
2022/03/24 04:23:09;;;;;;;43.35;23.10;;;11.70;40.20;;;;;;5035465;28;20033;-91
2022/03/24 04:25:36;;;;;;;48.35;22.60;;;11.70;40.20;;;;;;5036440;28;20112;-93
2022/03/24 04:28:04;;;;;;;44.97;22.33;;;11.80;40.20;;;;;;5036212;28;20029;-92
2022/03/24 04:30:31;;;;;;;48.28;22.98;;;11.80;40.20;;;;;;5017346;28;20132;-93
2022/03/24 04:32:58;;;;;;;51.72;23.50;;;11.80;40.20;;;;;;5003916;28;20045;-86
2022/03/24 04:35:24;;;;;;;42.08;23.13;;;11.80;40.20;;;;;;5023676;28;20504;-91
2022/03/24 04:37:50;;;;;;;45.83;22.63;;;11.80;40.10;;;;;;5012103;28;20037;-89
2022/03/24 04:40:19;;;;;;;46.30;21.88;;;11.80;40.10;;;;;;4998847;28;20026;-91
2022/03/24 04:42:46;;;;;;;43.35;22.20;;;11.80;40.10;;;;;;4989428;28;20057;-89
2022/03/24 04:45:17;;;;;;;40.60;21.27;;;11.80;40.00;;;;;;5008101;28;20121;-88
2022/03/24 04:47:44;;;;;;;43.28;21.42;;;11.80;39.90;;;;;;5003284;28;20061;-91
2022/03/24 04:50:10;;;;;;;40.25;20.73;;;11.80;39.80;;;;;;5014095;28;20068;-91
2022/03/24 04:52:36;;;;;;;38.53;21.70;;;11.90;39.80;;;;;;4996188;28;20133;-88
2022/03/24 04:55:03;;;;;;;46.13;22.00;;;11.80;39.70;;;;;;5031364;28;20120;-87
2022/03/24 04:57:29;;;;;;;41.38;21.33;;;11.90;39.80;;;;;;5047867;28;20053;-88
2022/03/24 04:59:57;;;;;;;40.75;21.48;;;11.90;39.70;;;;;;5014425;28;20034;-87
2022/03/24 05:02:24;;;;;;;45.13;22.15;;;11.90;39.70;;;;;;5011879;28;20037;-87
2022/03/24 05:04:50;;;;;;;44.25;21.50;;;11.90;39.60;;;;;;5011505;28;20495;-86
2022/03/24 05:07:16;;;;;;;44.58;22.02;;;11.90;39.60;;;;;;5012843;28;20033;-88
2022/03/24 05:09:42;;;;;;;44.80;21.95;;;11.90;39.50;;;;;;5009058;28;20071;-87
2022/03/24 05:12:09;;;;;;;45.42;21.92;;;11.90;39.50;;;;;;5010603;28;20033;-86
2022/03/24 05:14:35;;;;;;;43.40;22.25;;;12.00;39.80;;;;;;5028274;28;20477;-85
2022/03/24 05:17:03;;;;;;;47.05;21.92;;;12.00;40.40;;;;;;5011242;28;20059;-89
2022/03/24 05:19:31;;;;;;;43.83;22.20;;;12.00;40.20;;;;;;5029555;28;20099;-88
2022/03/24 05:21:58;;;;;;;44.25;21.83;;;12.10;40.00;;;;;;5030152;28;20033;-85
2022/03/24 05:24:24;;;;;;;39.83;22.23;;;12.00;39.70;;;;;;5030144;28;20052;-78
2022/03/24 05:26:51;;;;;;;41.25;22.50;;;12.00;39.60;;;;;;5009084;28;20056;-76
2022/03/24 05:29:17;;;;;;;35.78;19.42;;;12.00;39.60;;;;;;5025730;28;20053;-81
2022/03/24 05:31:44;;;;;;;40.08;20.38;;;12.10;46.50;;;;;;5027041;28;20029;-80
2022/03/24 05:34:10;;;;;;;47.25;21.77;;;12.30;47.40;;;;;;5029140;28;20030;-82
2022/03/24 05:36:36;;;;;;;41.00;21.90;;;12.60;45.90;;;;;;5029540;28;20033;-80
2022/03/24 05:39:03;;;;;;;45.67;23.08;;;12.80;44.50;;;;;;5027205;28;20068;-80
2022/03/24 05:41:30;;;;;;;46.25;22.17;;;13.00;43.20;;;;;;5009909;28;20049;-80
2022/03/24 05:44:02;;;;;;;55.05;23.58;;;13.20;42.20;;;;;;5027699;28;20079;-80
2022/03/24 05:46:38;;;;;;;45.83;22.88;;;13.40;41.40;;;;;;5026649;28;20045;-80
2022/03/24 05:49:06;;;;;;;38.70;23.33;;;13.60;40.90;;;;;;5026383;28;20033;-83
2022/03/24 05:51:50;;;;;;;;;;;13.80;40.60;;;;;;5027154;28;20041;-80
2022/03/24 05:54:17;;;;;;;59.53;25.90;;;14.00;40.30;;;;;;5027350;28;19917;-80
2022/03/24 05:56:45;;;;;;;53.95;24.67;;;14.10;40.00;;;;;;5027594;28;20049;-79
2022/03/24 05:59:11;;;;;;;54.40;24.70;;;14.20;40.10;;;;;;5027069;28;20037;-78
2022/03/24 06:01:39;;;;;;;66.22;25.98;;;14.30;40.20;;;;;;5028163;28;20036;-78
2022/03/24 06:04:06;;;;;;;59.15;25.92;;;14.40;39.70;;;;;;5026199;28;20247;-78
2022/03/24 06:06:37;;;;;;;53.30;26.50;;;14.50;39.50;;;;;;5026556;28;20042;-79
2022/03/24 06:09:05;;;;;;;57.53;29.58;;;14.70;39.50;;;;;;5026480;28;20049;-78
2022/03/24 06:11:34;;;;;;;55.55;26.17;;;14.80;39.30;;;;;;5007946;28;20393;-82
2022/03/24 06:14:01;;;;;;;54.90;26.48;;;14.90;39.30;;;;;;5026478;28;20026;-81
2022/03/24 06:16:27;;;;;;;49.22;24.52;;;15.00;39.10;;;;;;5026237;28;20038;-80
2022/03/24 06:18:53;;;;;;;47.22;23.48;;;15.10;38.90;;;;;;5012479;28;20040;-80
2022/03/24 06:21:19;;;;;;;50.45;25.08;;;15.20;38.70;;;;;;5025758;28;20041;-80
2022/03/24 06:23:45;;;;;;;47.95;24.10;;;15.40;38.50;;;;;;5026562;28;20693;-80
2022/03/24 06:26:11;;;;;;;48.10;25.35;;;15.50;38.50;;;;;;5025970;28;20095;-80
2022/03/24 06:28:37;;;;;;;42.20;23.10;;;15.60;38.20;;;;;;5026024;28;20099;-80
2022/03/24 06:31:05;;;;;;;45.88;22.48;;;15.70;38.20;;;;;;5025980;28;20512;-80
2022/03/24 06:33:31;;;;;;;43.80;22.02;;;15.80;38.30;;;;;;5025808;28;20040;-80
2022/03/24 06:35:57;;;;;;;40.95;21.27;;;15.90;37.80;;;;;;5026517;28;20037;-81
2022/03/24 06:38:23;;;;;;;39.72;20.95;;;16.10;37.50;;;;;;5025520;28;20083;-82
2022/03/24 06:40:49;;;;;;;32.92;20.42;;;16.20;37.70;;;;;;5025177;28;20064;-82
2022/03/24 06:43:15;;;;;;;39.60;21.33;;;16.30;37.40;;;;;;5027351;28;20495;-82
2022/03/24 06:45:41;;;;;;;41.00;21.40;;;16.30;37.10;;;;;;5026923;28;20586;-81
2022/03/24 06:48:07;;;;;;;44.80;22.67;;;16.50;36.80;;;;;;5025454;28;20121;-80
2022/03/24 06:50:34;;;;;;;45.58;21.40;;;16.60;36.50;;;;;;5025710;28;20041;-81
2022/03/24 06:53:00;;;;;;;34.72;18.98;;;16.70;36.20;;;;;;5026744;28;20033;-81
2022/03/24 06:55:26;;;;;;;38.17;20.30;;;16.80;35.90;;;;;;5010448;28;20440;-80
2022/03/24 06:57:52;;;;;;;41.33;19.83;;;16.90;35.70;;;;;;5026449;28;20022;-80
2022/03/24 07:00:18;;;;;;;40.60;20.27;;;17.00;35.40;;;;;;5025974;28;20045;-82
2022/03/24 07:02:45;;;;;;;33.35;19.50;;;17.10;35.40;;;;;;5007490;28;20066;-79
2022/03/24 07:05:12;;;;;;;33.30;19.77;;;17.20;35.30;;;;;;5025382;28;20030;-80
2022/03/24 07:07:39;;;;;;;33.88;21.42;;;17.20;35.50;;;;;;5007440;28;20045;-82
2022/03/24 07:10:06;;;;;;;37.58;21.55;;;17.30;35.20;;;;;;5025359;28;20045;-80
2022/03/24 07:12:32;;;;;;;40.10;20.67;;;17.40;35.10;;;;;;5028914;28;20069;-82
2022/03/24 07:14:58;;;;;;;42.00;21.88;;;17.50;34.90;;;;;;5024948;28;20459;-81
2022/03/24 07:17:24;;;;;;;35.47;20.35;;;17.60;34.70;;;;;;5007195;28;20029;-82
2022/03/24 07:19:50;;;;;;;33.17;19.75;;;17.70;34.60;;;;;;5025975;28;20025;-82
2022/03/24 07:22:16;;;;;;;31.88;20.58;;;17.70;34.40;;;;;;5025782;28;20052;-82
2022/03/24 07:24:42;;;;;;;30.08;18.40;;;17.80;34.30;;;;;;5024900;28;20377;-81
2022/03/24 07:27:09;;;;;;;29.27;18.13;;;17.90;34.20;;;;;;5025756;28;20052;-81
2022/03/24 07:29:36;;;;;;;34.25;19.63;;;18.00;34.10;;;;;;5005752;28;20037;-81
2022/03/24 07:32:02;;;;;;;30.88;18.13;;;18.00;34.00;;;;;;5007739;28;20033;-82
2022/03/24 07:34:29;;;;;;;28.88;17.38;;;18.10;33.90;;;;;;5023587;28;20036;-82
2022/03/24 07:36:55;;;;;;;33.13;17.92;;;18.10;33.80;;;;;;5025824;28;20112;-83
2022/03/24 07:39:21;;;;;;;28.23;16.80;;;18.20;33.50;;;;;;5007222;28;20033;-84
2022/03/24 07:41:46;;;;;;;21.80;15.13;;;18.20;33.30;;;;;;4990832;28;20048;-83
2022/03/24 07:44:13;;;;;;;23.23;14.75;;;18.30;33.20;;;;;;5025073;28;20527;-83
2022/03/24 07:46:41;;;;;;;22.63;13.82;;;18.30;32.50;;;;;;5024999;28;20061;-83
2022/03/24 07:49:07;;;;;;;25.80;13.27;;;18.30;33.00;;;;;;5025710;28;20037;-84
2022/03/24 07:51:34;;;;;;;20.45;12.05;;;18.30;33.10;;;;;;5028608;28;20095;-83
2022/03/24 07:54:04;;;;;;;22.77;12.95;;;18.30;32.70;;;;;;5010224;28;20029;-83
2022/03/24 07:56:31;;;;;;;19.50;12.15;;;18.30;33.00;;;;;;5002808;28;20164;-83
2022/03/24 07:58:58;;;;;;;21.70;11.68;;;18.30;33.60;;;;;;4999220;28;20036;-84
2022/03/24 08:01:26;;;;;;;17.20;10.68;;;18.30;32.90;;;;;;5029015;28;20496;-84
2022/03/24 08:03:53;;;;;;;19.92;11.30;;;18.40;32.80;;;;;;5029285;28;20029;-82
2022/03/24 08:06:21;;;;;;;22.77;11.02;;;18.30;33.00;;;;;;5028786;28;20037;-81
2022/03/24 08:08:47;;;;;;;17.52;9.98;;;18.30;32.70;;;;;;5028456;28;20049;-83
2022/03/24 08:11:12;;;;;;;23.30;10.52;;;18.30;32.30;;;;;;5028561;28;20562;-82
2022/03/24 08:13:38;;;;;;;19.33;11.07;;;18.30;32.70;;;;;;5010721;28;20397;-82
2022/03/24 08:16:06;;;;;;;17.80;11.32;;;18.20;33.10;;;;;;5028455;28;20040;-82
2022/03/24 08:18:32;;;;;;;21.20;11.48;;;18.20;32.30;;;;;;5028148;28;20033;-82
2022/03/24 08:20:59;;;;;;;22.15;11.05;;;18.10;32.40;;;;;;5028522;28;20080;-81
2022/03/24 08:23:25;;;;;;;19.00;10.75;;;18.10;32.90;;;;;;5010280;28;20500;-82
2022/03/24 08:25:51;;;;;;;18.55;10.40;;;18.10;33.70;;;;;;5010497;28;20323;-82
2022/03/24 08:28:17;;;;;;;22.70;11.32;;;18.00;34.20;;;;;;5030715;28;20816;-85
2022/03/24 08:30:47;;;;;;;18.15;10.32;;;18.00;34.20;;;;;;5009946;28;20049;-83
2022/03/24 08:33:13;;;;;;;20.50;11.13;;;18.00;34.50;;;;;;5028356;28;20033;-83
2022/03/24 08:35:41;;;;;;;18.15;10.50;;;18.00;34.30;;;;;;4997557;28;20033;-84
2022/03/24 08:38:07;;;;;;;16.60;10.40;;;17.90;34.20;;;;;;5027588;28;20053;-82
2022/03/24 08:40:33;;;;;;;21.45;10.23;;;17.90;34.30;;;;;;5010221;28;20504;-82
2022/03/24 08:43:00;;;;;;;14.73;10.40;;;17.90;34.20;;;;;;5010061;28;20120;-83
2022/03/24 08:45:25;;;;;;;19.40;10.02;;;17.90;34.50;;;;;;5028005;28;20472;-83
2022/03/24 08:47:53;;;;;;;11.85;8.27;;;17.90;34.60;;;;;;5028090;28;20060;-85
2022/03/24 08:50:20;;;;;;;15.00;8.80;;;17.90;34.50;;;;;;5028408;28;20033;-84
2022/03/24 08:52:46;;;;;;;18.25;8.85;;;17.90;35.00;;;;;;4997616;28;20046;-84
2022/03/24 08:55:15;;;;;;;14.02;9.50;;;17.90;34.70;;;;;;5029317;28;20029;-83
2022/03/24 08:57:43;;;;;;;17.88;9.52;;;17.90;34.30;;;;;;5028504;28;20108;-85
2022/03/24 09:00:16;;;;;;;14.13;8.10;;;17.90;34.00;;;;;;5027671;28;20055;-85
2022/03/24 09:02:48;;;;;;;17.48;8.05;;;17.80;33.00;;;;;;5026630;28;20120;-85
2022/03/24 09:05:16;;;;;;;14.82;8.43;;;17.70;32.30;;;;;;5027823;28;20060;-85
2022/03/24 09:07:42;;;;;;;15.70;7.57;;;17.70;32.90;;;;;;5026655;28;20533;-84
2022/03/24 09:10:10;;;;;;;12.00;6.10;;;17.70;32.80;;;;;;4993186;28;20108;-85
2022/03/24 09:12:38;;;;;;;11.25;5.80;;;17.60;32.10;;;;;;5027528;28;20033;-85
2022/03/24 09:15:07;;;;;;;10.82;6.22;;;17.60;31.90;;;;;;5025000;28;20043;-84
2022/03/24 09:17:34;;;;;;;12.82;8.57;;;17.60;32.30;;;;;;5032262;28;20089;-84
2022/03/24 09:20:01;;;;;;;16.67;7.68;;;17.60;32.50;;;;;;5039872;28;20396;-85
2022/03/24 09:22:27;;;;;;;9.45;6.35;;;17.60;32.80;;;;;;5009253;28;20084;-85
2022/03/24 09:24:53;;;;;;;7.35;4.72;;;17.60;32.90;;;;;;4993112;28;20033;-84
2022/03/24 09:27:19;;;;;;;5.63;3.92;;;17.60;32.30;;;;;;5017359;28;20049;-86
2022/03/24 09:29:45;;;;;;;6.85;4.40;;;17.60;31.60;;;;;;5027162;28;20044;-84
2022/03/24 09:32:12;;;;;;;5.45;4.35;;;17.50;30.90;;;;;;4976080;28;20026;-84
2022/03/24 09:34:41;;;;;;;8.23;5.13;;;17.40;30.90;;;;;;5006168;28;20059;-85
2022/03/24 09:37:08;;;;;;;7.22;5.38;;;17.40;31.10;;;;;;5028262;28;20033;-84
2022/03/24 09:39:35;;;;;;;9.50;5.72;;;17.40;31.30;;;;;;5009117;28;20124;-85
2022/03/24 09:42:01;;;;;;;10.40;6.82;;;17.30;31.20;;;;;;5013769;28;20424;-85
2022/03/24 09:44:28;;;;;;;11.18;6.63;;;17.30;31.70;;;;;;5032083;28;20037;-84
2022/03/24 09:46:54;;;;;;;13.82;7.10;;;17.30;32.40;;;;;;5026976;28;20057;-85
2022/03/24 09:49:23;;;;;;;11.95;6.88;;;17.30;32.20;;;;;;5027343;28;20112;-85
2022/03/24 09:51:49;;;;;;;12.85;6.60;;;17.30;31.50;;;;;;5008449;28;20044;-84
2022/03/24 09:54:15;;;;;;;9.88;6.13;;;17.20;31.40;;;;;;5026263;28;20084;-85
2022/03/24 09:56:41;;;;;;;11.20;6.00;;;17.10;31.40;;;;;;5026799;28;20061;-86
2022/03/24 09:59:11;;;;;;;7.75;5.75;;;17.10;31.60;;;;;;5026487;28;20460;-85
2022/03/24 10:01:39;;;;;;;8.70;5.47;;;17.10;31.90;;;;;;4995425;28;20128;-85
2022/03/24 10:04:09;;;;;;;8.35;5.68;;;17.10;32.20;;;;;;4992112;28;20021;-85
2022/03/24 10:06:37;;;;;;;9.18;5.88;;;17.10;32.30;;;;;;5026274;28;20496;-85
2022/03/24 10:09:04;;;;;;;9.80;5.70;;;17.10;32.30;;;;;;5025575;28;20962;-84
2022/03/24 10:11:30;;;;;;;9.40;5.95;;;17.10;32.00;;;;;;4993455;28;20041;-87
2022/03/24 10:13:58;;;;;;;9.55;5.82;;;17.10;31.70;;;;;;5023593;28;20061;-84
2022/03/24 10:16:33;;;;;;;10.95;5.80;;;17.10;31.70;;;;;;5009722;28;20080;-82
2022/03/24 10:19:09;;;;;;;9.88;5.78;;;17.10;31.50;;;;;;5026391;28;20049;-84
2022/03/24 10:21:38;;;;;;;10.32;6.07;;;17.10;31.50;;;;;;5017851;28;20046;-85
2022/03/24 10:24:12;;;;;;;8.82;5.85;;;17.00;31.20;;;;;;5025678;28;20095;-83
2022/03/24 10:26:49;;;;;;;8.48;5.50;;;17.00;31.30;;;;;;5007849;28;20042;-85
2022/03/24 10:29:18;;;;;;;11.93;6.05;;;17.00;31.40;;;;;;5023184;28;20033;-86
2022/03/24 10:31:45;;;;;;;7.60;5.75;;;17.00;31.40;;;;;;5007072;28;20464;-85
2022/03/24 10:34:12;;;;;;;9.02;5.53;;;17.00;31.40;;;;;;5026890;28;20033;-84
2022/03/24 10:36:41;;;;;;;6.97;5.22;;;17.00;31.70;;;;;;4999310;28;20539;-84
2022/03/24 10:39:09;;;;;;;10.05;6.05;;;17.00;31.70;;;;;;5025637;28;20052;-80
2022/03/24 10:41:37;;;;;;;12.15;6.10;;;17.00;31.50;;;;;;5026974;28;20056;-82
2022/03/24 10:44:12;;;;;;;7.55;5.28;;;16.90;31.60;;;;;;5007756;28;21030;-78
2022/03/24 10:46:43;;;;;;;9.73;6.15;;;16.90;31.20;;;;;;5025558;28;20038;-81
2022/03/24 10:49:25;;;;;;;9.43;6.15;;;16.90;31.30;;;;;;5008331;28;20500;-82
2022/03/24 10:51:53;;;;;;;9.35;5.80;;;16.90;31.20;;;;;;4991906;28;20496;-83
2022/03/24 10:54:35;;;;;;;7.65;5.55;;;16.90;31.40;;;;;;5009053;28;20587;-92
2022/03/24 10:57:13;;;;;;;9.90;5.93;;;16.90;31.90;;;;;;5012588;28;20077;-82
2022/03/24 10:59:44;;;;;;;7.70;4.85;;;17.00;32.20;;;;;;5013081;28;20045;-85
2022/03/24 11:02:11;;;;;;;8.02;4.60;;;17.00;35.00;;;;;;5041187;28;20041;-86
2022/03/24 11:04:38;;;;;;;9.20;5.35;;;17.10;37.20;;;;;;5031918;28;20037;-86
2022/03/24 11:07:04;;;;;;;7.50;4.60;;;17.20;38.50;;;;;;5033017;28;20068;-86
2022/03/24 11:09:34;;;;;;;8.27;4.60;;;17.30;38.30;;;;;;5029531;28;20519;-88
2022/03/24 11:12:24;;;;;;;11.80;4.07;;;17.30;38.50;;;;;;5011190;28;20037;-92
2022/03/24 11:14:53;;;;;;;10.18;5.03;;;17.40;38.90;;;;;;5008449;28;20385;-93
2022/03/24 11:17:21;;;;;;;9.43;5.18;;;17.40;37.10;;;;;;5027090;28;20037;-90
2022/03/24 11:19:57;;;;;;;8.88;5.95;;;17.50;35.70;;;;;;5013081;28;20688;-87
2022/03/24 11:22:42;;;;;;;8.38;5.85;;;17.50;34.70;;;;;;5009131;28;20036;-86
2022/03/24 11:25:09;;;;;;;8.15;5.18;;;17.50;33.80;;;;;;5029232;28;20048;-90
2022/03/24 11:27:35;;;;;;;10.02;5.70;;;17.50;33.90;;;;;;5012347;28;20146;-91
2022/03/24 11:30:07;;;;;;;7.05;5.13;;;17.50;34.20;;;;;;5016891;28;20064;-89
2022/03/24 11:32:36;;;;;;;8.45;5.88;;;17.50;34.80;;;;;;4992349;28;20033;-90
2022/03/24 11:35:06;;;;;;;8.88;5.47;;;17.50;34.80;;;;;;5011120;28;20045;-89
2022/03/24 11:37:34;;;;;;;10.20;5.95;;;17.50;34.90;;;;;;5011995;28;20042;-88
2022/03/24 11:40:08;;;;;;;9.75;5.85;;;17.50;34.70;;;;;;5011103;28;20068;-89
2022/03/24 11:42:46;;;;;;;12.17;6.30;;;17.50;34.50;;;;;;5011617;28;20033;-89
2022/03/24 11:45:25;;;;;;;11.77;5.80;;;17.50;34.70;;;;;;5013175;28;20421;-88
2022/03/24 11:48:11;;;;;;;7.03;5.35;;;17.50;34.50;;;;;;5029158;28;20420;-89
2022/03/24 11:50:46;;;;;;;10.13;6.00;;;17.50;34.60;;;;;;5009880;28;20034;-87
2022/03/24 11:53:27;;;;;;;10.07;5.95;;;17.50;35.00;;;;;;5006687;28;20029;-88
2022/03/24 11:55:59;;;;;;;11.60;6.03;;;17.50;34.80;;;;;;5010110;28;20060;-86
2022/03/24 11:58:44;;;;;;;12.23;5.88;;;17.50;34.60;;;;;;4994434;28;20087;-87
2022/03/24 12:01:19;;;;;;;9.20;5.95;;;17.50;34.20;;;;;;5029134;28;20136;-87
2022/03/24 12:04:03;;;;;;;8.88;6.07;;;17.50;34.10;;;;;;5009870;28;20033;-86
2022/03/24 12:06:42;;;;;;;9.07;6.47;;;17.50;33.60;;;;;;5008869;28;20527;-86
2022/03/24 12:09:09;;;;;;;10.00;5.97;;;17.50;33.80;;;;;;5027065;28;20144;-86
2022/03/24 12:11:41;;;;;;;14.15;6.15;;;17.50;33.40;;;;;;5028453;28;20080;-88
2022/03/24 12:14:21;;;;;;;8.65;6.40;;;17.40;33.20;;;;;;5018390;28;20040;-90
2022/03/24 12:16:50;;;;;;;10.10;6.20;;;17.40;33.10;;;;;;5028150;28;20041;-85
2022/03/24 12:19:41;;;;;;;14.80;7.10;;;17.40;33.20;;;;;;5029205;28;20034;-87
2022/03/24 12:22:25;;;;;;;12.15;6.15;;;17.40;33.10;;;;;;5017678;28;20192;-85
2022/03/24 12:25:14;;;;;;;6.68;5.50;;;17.40;32.90;;;;;;5027635;28;20596;-85
2022/03/24 12:28:03;;;;;;;10.35;5.78;;;17.30;33.30;;;;;;5014557;28;20041;-85
2022/03/24 12:31:04;;;;;;;10.10;5.93;;;17.40;33.70;;;;;;5013877;28;20053;-85
2022/03/24 12:33:46;;;;;;;9.73;5.68;;;17.30;33.90;;;;;;5029255;28;20080;-85
2022/03/24 12:36:14;;;;;;;9.25;5.35;;;17.40;34.40;;;;;;5026349;28;20029;-85